sensor_id;sensor_type;location;lat;lon;timestamp;temperature;humidity
16402;DHT22;8310;44.626;11.176;2023-10-13T00:00:26;21.10;55.90
16402;DHT22;8310;44.626;11.176;2023-10-13T00:02:57;21.00;55.90
16402;DHT22;8310;44.626;11.176;2023-10-13T00:05:27;21.00;55.90
16402;DHT22;8310;44.626;11.176;2023-10-13T00:07:56;21.00;55.90
16402;DHT22;8310;44.626;11.176;2023-10-13T00:10:27;21.00;55.90
16402;DHT22;8310;44.626;11.176;2023-10-13T00:12:55;20.90;55.90
16402;DHT22;8310;44.626;11.176;2023-10-13T00:15:31;20.90;55.90
16402;DHT22;8310;44.626;11.176;2023-10-13T00:18:06;20.80;56.40
16402;DHT22;8310;44.626;11.176;2023-10-13T00:20:39;20.80;55.80
16402;DHT22;8310;44.626;11.176;2023-10-13T00:23:06;20.70;55.80
16402;DHT22;8310;44.626;11.176;2023-10-13T00:25:33;20.70;55.80
16402;DHT22;8310;44.626;11.176;2023-10-13T00:28:09;20.70;55.90
16402;DHT22;8310;44.626;11.176;2023-10-13T00:30:37;20.70;55.90
16402;DHT22;8310;44.626;11.176;2023-10-13T00:33:06;20.70;56.00
16402;DHT22;8310;44.626;11.176;2023-10-13T00:35:35;20.70;55.90
16402;DHT22;8310;44.626;11.176;2023-10-13T00:38:03;20.70;55.80
16402;DHT22;8310;44.626;11.176;2023-10-13T00:40:38;20.60;55.80
16402;DHT22;8310;44.626;11.176;2023-10-13T00:43:10;20.60;55.70
16402;DHT22;8310;44.626;11.176;2023-10-13T00:45:56;20.50;55.70
16402;DHT22;8310;44.626;11.176;2023-10-13T00:48:27;20.50;55.70
16402;DHT22;8310;44.626;11.176;2023-10-13T00:50:56;20.40;55.80
16402;DHT22;8310;44.626;11.176;2023-10-13T00:53:29;20.40;55.90
16402;DHT22;8310;44.626;11.176;2023-10-13T00:55:59;20.40;56.10
16402;DHT22;8310;44.626;11.176;2023-10-13T00:58:32;20.40;56.10
16402;DHT22;8310;44.626;11.176;2023-10-13T01:00:59;20.50;56.20
16402;DHT22;8310;44.626;11.176;2023-10-13T01:03:46;20.40;56.10
16402;DHT22;8310;44.626;11.176;2023-10-13T01:06:16;20.50;56.10
16402;DHT22;8310;44.626;11.176;2023-10-13T01:08:46;20.40;56.00
16402;DHT22;8310;44.626;11.176;2023-10-13T01:11:17;20.40;56.00
16402;DHT22;8310;44.626;11.176;2023-10-13T01:13:43;20.40;56.10
16402;DHT22;8310;44.626;11.176;2023-10-13T01:16:13;20.40;56.10
16402;DHT22;8310;44.626;11.176;2023-10-13T01:18:39;20.40;56.20
16402;DHT22;8310;44.626;11.176;2023-10-13T01:21:16;20.40;56.20
16402;DHT22;8310;44.626;11.176;2023-10-13T01:23:47;20.40;56.20
16402;DHT22;8310;44.626;11.176;2023-10-13T01:26:16;20.40;56.20
16402;DHT22;8310;44.626;11.176;2023-10-13T01:28:50;20.40;56.20
16402;DHT22;8310;44.626;11.176;2023-10-13T01:31:20;20.40;56.20
16402;DHT22;8310;44.626;11.176;2023-10-13T01:33:55;20.40;56.20
16402;DHT22;8310;44.626;11.176;2023-10-13T01:36:25;20.40;56.20
16402;DHT22;8310;44.626;11.176;2023-10-13T01:38:53;20.40;56.30
16402;DHT22;8310;44.626;11.176;2023-10-13T01:41:21;20.40;56.30
16402;DHT22;8310;44.626;11.176;2023-10-13T01:43:49;20.40;56.30
16402;DHT22;8310;44.626;11.176;2023-10-13T01:46:15;20.40;56.30
16402;DHT22;8310;44.626;11.176;2023-10-13T01:48:45;20.40;56.40
16402;DHT22;8310;44.626;11.176;2023-10-13T01:51:12;20.40;56.40
16402;DHT22;8310;44.626;11.176;2023-10-13T01:53:40;20.40;56.30
16402;DHT22;8310;44.626;11.176;2023-10-13T01:56:09;20.30;56.30
16402;DHT22;8310;44.626;11.176;2023-10-13T01:58:40;20.30;56.30
16402;DHT22;8310;44.626;11.176;2023-10-13T02:01:08;20.30;56.30
16402;DHT22;8310;44.626;11.176;2023-10-13T02:03:36;20.20;56.30
16402;DHT22;8310;44.626;11.176;2023-10-13T02:06:07;20.20;56.40
16402;DHT22;8310;44.626;11.176;2023-10-13T02:08:42;20.20;56.40
16402;DHT22;8310;44.626;11.176;2023-10-13T02:11:11;20.20;56.40
16402;DHT22;8310;44.626;11.176;2023-10-13T02:13:38;20.20;56.30
16402;DHT22;8310;44.626;11.176;2023-10-13T02:16:14;20.10;56.20
16402;DHT22;8310;44.626;11.176;2023-10-13T02:18:44;20.10;56.30
16402;DHT22;8310;44.626;11.176;2023-10-13T02:21:11;20.00;56.30
16402;DHT22;8310;44.626;11.176;2023-10-13T02:23:41;20.00;56.40
16402;DHT22;8310;44.626;11.176;2023-10-13T02:26:12;20.00;56.30
16402;DHT22;8310;44.626;11.176;2023-10-13T02:28:41;20.00;56.40
16402;DHT22;8310;44.626;11.176;2023-10-13T02:31:09;20.00;56.40
16402;DHT22;8310;44.626;11.176;2023-10-13T02:33:37;20.00;56.30
16402;DHT22;8310;44.626;11.176;2023-10-13T02:36:10;19.90;56.20
16402;DHT22;8310;44.626;11.176;2023-10-13T02:38:38;19.80;56.30
16402;DHT22;8310;44.626;11.176;2023-10-13T02:41:14;19.80;56.30
16402;DHT22;8310;44.626;11.176;2023-10-13T02:43:45;19.80;56.40
16402;DHT22;8310;44.626;11.176;2023-10-13T02:46:13;19.80;56.40
16402;DHT22;8310;44.626;11.176;2023-10-13T02:48:41;19.70;56.40
16402;DHT22;8310;44.626;11.176;2023-10-13T02:51:12;19.70;56.40
16402;DHT22;8310;44.626;11.176;2023-10-13T02:53:42;19.70;56.40
16402;DHT22;8310;44.626;11.176;2023-10-13T02:56:14;19.70;56.50
16402;DHT22;8310;44.626;11.176;2023-10-13T02:58:47;19.60;56.30
16402;DHT22;8310;44.626;11.176;2023-10-13T03:01:19;19.60;56.30
16402;DHT22;8310;44.626;11.176;2023-10-13T03:03:47;19.50;56.20
16402;DHT22;8310;44.626;11.176;2023-10-13T03:06:16;19.50;56.30
16402;DHT22;8310;44.626;11.176;2023-10-13T03:08:43;19.50;56.40
16402;DHT22;8310;44.626;11.176;2023-10-13T03:11:11;19.40;56.30
16402;DHT22;8310;44.626;11.176;2023-10-13T03:13:38;19.40;56.30
16402;DHT22;8310;44.626;11.176;2023-10-13T03:16:14;19.40;56.30
16402;DHT22;8310;44.626;11.176;2023-10-13T03:18:43;19.40;56.40
16402;DHT22;8310;44.626;11.176;2023-10-13T03:21:20;19.40;56.40
16402;DHT22;8310;44.626;11.176;2023-10-13T03:23:56;19.40;56.30
16402;DHT22;8310;44.626;11.176;2023-10-13T03:26:24;19.40;56.30
16402;DHT22;8310;44.626;11.176;2023-10-13T03:28:53;19.40;56.40
16402;DHT22;8310;44.626;11.176;2023-10-13T03:31:22;19.30;56.40
16402;DHT22;8310;44.626;11.176;2023-10-13T03:33:53;19.30;56.40
16402;DHT22;8310;44.626;11.176;2023-10-13T03:36:26;19.30;56.40
16402;DHT22;8310;44.626;11.176;2023-10-13T03:39:09;19.30;56.50
16402;DHT22;8310;44.626;11.176;2023-10-13T03:41:37;19.30;56.50
16402;DHT22;8310;44.626;11.176;2023-10-13T03:44:07;19.30;57.10
16402;DHT22;8310;44.626;11.176;2023-10-13T03:46:40;19.20;56.40
16402;DHT22;8310;44.626;11.176;2023-10-13T03:49:08;19.10;56.90
16402;DHT22;8310;44.626;11.176;2023-10-13T03:51:39;19.00;56.30
16402;DHT22;8310;44.626;11.176;2023-10-13T03:54:06;18.90;56.20
16402;DHT22;8310;44.626;11.176;2023-10-13T03:56:35;18.80;56.30
16402;DHT22;8310;44.626;11.176;2023-10-13T03:59:08;18.80;56.40
16402;DHT22;8310;44.626;11.176;2023-10-13T04:01:43;18.80;56.50
16402;DHT22;8310;44.626;11.176;2023-10-13T04:04:13;18.70;56.40
16402;DHT22;8310;44.626;11.176;2023-10-13T04:06:41;18.70;56.50
16402;DHT22;8310;44.626;11.176;2023-10-13T04:09:18;18.70;56.50
16402;DHT22;8310;44.626;11.176;2023-10-13T04:12:04;18.60;56.50
16402;DHT22;8310;44.626;11.176;2023-10-13T04:15:11;18.60;56.60
16402;DHT22;8310;44.626;11.176;2023-10-13T04:17:49;18.60;56.70
16402;DHT22;8310;44.626;11.176;2023-10-13T04:20:17;18.60;56.70
16402;DHT22;8310;44.626;11.176;2023-10-13T04:22:58;18.50;56.70
16402;DHT22;8310;44.626;11.176;2023-10-13T04:25:42;18.50;56.70
16402;DHT22;8310;44.626;11.176;2023-10-13T04:28:31;18.50;56.70
16402;DHT22;8310;44.626;11.176;2023-10-13T04:31:04;18.50;56.70
16402;DHT22;8310;44.626;11.176;2023-10-13T04:33:50;18.60;56.70
16402;DHT22;8310;44.626;11.176;2023-10-13T04:36:18;18.60;56.70
16402;DHT22;8310;44.626;11.176;2023-10-13T04:39:02;18.50;56.60
16402;DHT22;8310;44.626;11.176;2023-10-13T04:41:36;18.50;56.60
16402;DHT22;8310;44.626;11.176;2023-10-13T04:44:05;18.40;56.50
16402;DHT22;8310;44.626;11.176;2023-10-13T04:46:48;18.40;56.50
16402;DHT22;8310;44.626;11.176;2023-10-13T04:49:34;18.40;56.60
16402;DHT22;8310;44.626;11.176;2023-10-13T04:52:03;18.40;56.60
16402;DHT22;8310;44.626;11.176;2023-10-13T04:54:52;18.40;56.60
16402;DHT22;8310;44.626;11.176;2023-10-13T04:57:22;18.30;56.70
16402;DHT22;8310;44.626;11.176;2023-10-13T04:59:57;18.30;56.70
16402;DHT22;8310;44.626;11.176;2023-10-13T05:02:54;18.30;56.70
16402;DHT22;8310;44.626;11.176;2023-10-13T05:05:43;18.30;56.70
16402;DHT22;8310;44.626;11.176;2023-10-13T05:08:36;18.30;56.80
16402;DHT22;8310;44.626;11.176;2023-10-13T05:11:20;18.30;56.70
16402;DHT22;8310;44.626;11.176;2023-10-13T05:14:04;18.20;56.70
16402;DHT22;8310;44.626;11.176;2023-10-13T05:16:48;18.20;56.70
16402;DHT22;8310;44.626;11.176;2023-10-13T05:19:35;18.20;56.70
16402;DHT22;8310;44.626;11.176;2023-10-13T05:22:19;18.20;56.70
16402;DHT22;8310;44.626;11.176;2023-10-13T05:25:05;18.20;56.70
16402;DHT22;8310;44.626;11.176;2023-10-13T05:27:49;18.20;56.80
16402;DHT22;8310;44.626;11.176;2023-10-13T05:30:33;18.20;56.80
16402;DHT22;8310;44.626;11.176;2023-10-13T05:33:18;18.20;56.90
16402;DHT22;8310;44.626;11.176;2023-10-13T05:36:10;18.20;56.90
16402;DHT22;8310;44.626;11.176;2023-10-13T05:38:54;18.20;57.00
16402;DHT22;8310;44.626;11.176;2023-10-13T05:41:39;18.30;57.10
16402;DHT22;8310;44.626;11.176;2023-10-13T05:44:23;18.30;57.20
16402;DHT22;8310;44.626;11.176;2023-10-13T05:47:03;18.30;57.10
16402;DHT22;8310;44.626;11.176;2023-10-13T05:49:56;18.30;57.20
16402;DHT22;8310;44.626;11.176;2023-10-13T05:52:32;18.30;57.10
16402;DHT22;8310;44.626;11.176;2023-10-13T05:55:17;18.40;57.20
16402;DHT22;8310;44.626;11.176;2023-10-13T05:58:02;18.40;57.20
16402;DHT22;8310;44.626;11.176;2023-10-13T06:00:46;18.40;57.30
16402;DHT22;8310;44.626;11.176;2023-10-13T06:03:31;18.40;57.30
16402;DHT22;8310;44.626;11.176;2023-10-13T06:06:15;18.40;57.40
16402;DHT22;8310;44.626;11.176;2023-10-13T06:09:02;18.40;57.50
16402;DHT22;8310;44.626;11.176;2023-10-13T06:11:46;18.50;57.60
16402;DHT22;8310;44.626;11.176;2023-10-13T06:14:31;18.50;57.60
16402;DHT22;8310;44.626;11.176;2023-10-13T06:17:15;18.50;57.70
16402;DHT22;8310;44.626;11.176;2023-10-13T06:20:00;18.60;57.80
16402;DHT22;8310;44.626;11.176;2023-10-13T06:22:47;18.70;57.90
16402;DHT22;8310;44.626;11.176;2023-10-13T06:25:33;18.70;57.90
16402;DHT22;8310;44.626;11.176;2023-10-13T06:28:17;18.80;58.00
16402;DHT22;8310;44.626;11.176;2023-10-13T06:31:04;18.90;58.20
16402;DHT22;8310;44.626;11.176;2023-10-13T06:33:32;18.90;58.40
16402;DHT22;8310;44.626;11.176;2023-10-13T06:36:01;19.00;58.40
16402;DHT22;8310;44.626;11.176;2023-10-13T06:38:29;19.10;58.50
16402;DHT22;8310;44.626;11.176;2023-10-13T06:41:03;19.20;58.60
16402;DHT22;8310;44.626;11.176;2023-10-13T06:43:32;19.30;59.20
16402;DHT22;8310;44.626;11.176;2023-10-13T06:46:05;19.60;60.10
16402;DHT22;8310;44.626;11.176;2023-10-13T06:48:33;19.80;60.30
16402;DHT22;8310;44.626;11.176;2023-10-13T06:51:01;20.00;60.30
16402;DHT22;8310;44.626;11.176;2023-10-13T06:53:43;20.20;60.80
16402;DHT22;8310;44.626;11.176;2023-10-13T06:56:14;20.50;61.00
16402;DHT22;8310;44.626;11.176;2023-10-13T06:58:48;20.60;60.90
16402;DHT22;8310;44.626;11.176;2023-10-13T07:01:16;20.80;61.50
16402;DHT22;8310;44.626;11.176;2023-10-13T07:03:47;21.00;61.50
16402;DHT22;8310;44.626;11.176;2023-10-13T07:06:18;21.10;61.10
16402;DHT22;8310;44.626;11.176;2023-10-13T07:08:46;21.20;62.00
16402;DHT22;8310;44.626;11.176;2023-10-13T07:11:23;21.50;63.00
16402;DHT22;8310;44.626;11.176;2023-10-13T07:14:00;21.90;63.70
16402;DHT22;8310;44.626;11.176;2023-10-13T07:16:42;22.20;63.70
16402;DHT22;8310;44.626;11.176;2023-10-13T07:19:12;22.50;63.70
16402;DHT22;8310;44.626;11.176;2023-10-13T07:21:43;22.60;63.10
16402;DHT22;8310;44.626;11.176;2023-10-13T07:24:12;22.70;62.30
16402;DHT22;8310;44.626;11.176;2023-10-13T07:26:41;22.70;61.50
16402;DHT22;8310;44.626;11.176;2023-10-13T07:29:11;22.70;60.80
16402;DHT22;8310;44.626;11.176;2023-10-13T07:31:39;22.60;60.30
16402;DHT22;8310;44.626;11.176;2023-10-13T07:34:10;22.50;60.00
16402;DHT22;8310;44.626;11.176;2023-10-13T07:36:52;22.40;59.90
16402;DHT22;8310;44.626;11.176;2023-10-13T07:39:20;22.30;59.80
16402;DHT22;8310;44.626;11.176;2023-10-13T07:41:51;22.30;59.60
16402;DHT22;8310;44.626;11.176;2023-10-13T07:44:21;22.20;59.60
16402;DHT22;8310;44.626;11.176;2023-10-13T07:46:54;22.20;59.60
16402;DHT22;8310;44.626;11.176;2023-10-13T07:49:30;22.20;59.60
16402;DHT22;8310;44.626;11.176;2023-10-13T07:51:59;22.20;59.50
16402;DHT22;8310;44.626;11.176;2023-10-13T07:54:42;22.20;59.50
16402;DHT22;8310;44.626;11.176;2023-10-13T07:57:11;22.20;59.50
16402;DHT22;8310;44.626;11.176;2023-10-13T07:59:40;22.20;59.40
16402;DHT22;8310;44.626;11.176;2023-10-13T08:02:14;22.20;59.30
16402;DHT22;8310;44.626;11.176;2023-10-13T08:05:01;22.30;59.40
16402;DHT22;8310;44.626;11.176;2023-10-13T08:07:30;22.30;59.40
16402;DHT22;8310;44.626;11.176;2023-10-13T08:09:57;22.40;59.40
16402;DHT22;8310;44.626;11.176;2023-10-13T08:12:27;22.40;59.30
16402;DHT22;8310;44.626;11.176;2023-10-13T08:14:54;22.40;59.20
16402;DHT22;8310;44.626;11.176;2023-10-13T08:18:02;22.40;59.20
16402;DHT22;8310;44.626;11.176;2023-10-13T08:20:43;22.50;59.20
16402;DHT22;8310;44.626;11.176;2023-10-13T08:23:11;22.50;59.10
16402;DHT22;8310;44.626;11.176;2023-10-13T08:25:46;22.50;59.10
16402;DHT22;8310;44.626;11.176;2023-10-13T08:28:30;22.60;59.20
16402;DHT22;8310;44.626;11.176;2023-10-13T08:31:14;22.60;59.20
16402;DHT22;8310;44.626;11.176;2023-10-13T08:33:49;22.70;59.30
16402;DHT22;8310;44.626;11.176;2023-10-13T08:36:23;22.70;59.40
16402;DHT22;8310;44.626;11.176;2023-10-13T08:38:55;22.80;59.40
16402;DHT22;8310;44.626;11.176;2023-10-13T08:41:23;22.80;59.30
16402;DHT22;8310;44.626;11.176;2023-10-13T08:44:02;22.90;59.30
16402;DHT22;8310;44.626;11.176;2023-10-13T08:46:31;22.90;59.30
16402;DHT22;8310;44.626;11.176;2023-10-13T08:49:19;23.00;59.40
16402;DHT22;8310;44.626;11.176;2023-10-13T08:51:50;23.10;59.50
16402;DHT22;8310;44.626;11.176;2023-10-13T08:54:33;23.10;59.60
16402;DHT22;8310;44.626;11.176;2023-10-13T08:57:05;23.20;59.80
16402;DHT22;8310;44.626;11.176;2023-10-13T08:59:46;23.40;60.20
16402;DHT22;8310;44.626;11.176;2023-10-13T09:02:21;23.60;60.30
16402;DHT22;8310;44.626;11.176;2023-10-13T09:04:49;23.80;60.40
16402;DHT22;8310;44.626;11.176;2023-10-13T09:07:44;23.90;60.40
16402;DHT22;8310;44.626;11.176;2023-10-13T09:10:22;24.10;60.70
16402;DHT22;8310;44.626;11.176;2023-10-13T09:13:00;24.30;61.00
16402;DHT22;8310;44.626;11.176;2023-10-13T09:15:37;24.50;61.20
16402;DHT22;8310;44.626;11.176;2023-10-13T09:18:25;24.80;61.40
16402;DHT22;8310;44.626;11.176;2023-10-13T09:21:10;25.00;61.20
16402;DHT22;8310;44.626;11.176;2023-10-13T09:23:55;25.10;61.20
16402;DHT22;8310;44.626;11.176;2023-10-13T09:26:42;25.30;61.30
16402;DHT22;8310;44.626;11.176;2023-10-13T09:29:16;25.40;61.20
16402;DHT22;8310;44.626;11.176;2023-10-13T09:31:46;25.60;61.20
16402;DHT22;8310;44.626;11.176;2023-10-13T09:34:19;25.60;61.10
16402;DHT22;8310;44.626;11.176;2023-10-13T09:36:49;25.70;61.00
16402;DHT22;8310;44.626;11.176;2023-10-13T09:39:24;25.80;61.10
16402;DHT22;8310;44.626;11.176;2023-10-13T09:42:01;25.90;61.10
16402;DHT22;8310;44.626;11.176;2023-10-13T09:44:27;26.00;61.00
16402;DHT22;8310;44.626;11.176;2023-10-13T09:47:00;26.10;61.00
16402;DHT22;8310;44.626;11.176;2023-10-13T09:49:39;26.20;61.00
16402;DHT22;8310;44.626;11.176;2023-10-13T09:52:17;26.20;60.90
16402;DHT22;8310;44.626;11.176;2023-10-13T09:55:06;26.30;61.00
16402;DHT22;8310;44.626;11.176;2023-10-13T09:57:43;26.40;61.20
16402;DHT22;8310;44.626;11.176;2023-10-13T10:00:13;26.50;61.20
16402;DHT22;8310;44.626;11.176;2023-10-13T10:02:59;26.60;61.30
16402;DHT22;8310;44.626;11.176;2023-10-13T10:05:41;26.80;61.40
16402;DHT22;8310;44.626;11.176;2023-10-13T10:08:24;26.90;61.40
16402;DHT22;8310;44.626;11.176;2023-10-13T10:11:07;27.00;61.30
16402;DHT22;8310;44.626;11.176;2023-10-13T10:13:39;27.20;61.40
16402;DHT22;8310;44.626;11.176;2023-10-13T10:16:11;27.30;61.40
16402;DHT22;8310;44.626;11.176;2023-10-13T10:18:41;27.40;61.30
16402;DHT22;8310;44.626;11.176;2023-10-13T10:21:09;27.50;61.30
16402;DHT22;8310;44.626;11.176;2023-10-13T10:23:38;27.60;61.20
16402;DHT22;8310;44.626;11.176;2023-10-13T10:26:11;27.60;61.00
16402;DHT22;8310;44.626;11.176;2023-10-13T10:28:41;27.70;61.00
16402;DHT22;8310;44.626;11.176;2023-10-13T10:31:10;27.80;60.90
16402;DHT22;8310;44.626;11.176;2023-10-13T10:33:41;27.80;60.80
16402;DHT22;8310;44.626;11.176;2023-10-13T10:36:08;27.80;60.70
16402;DHT22;8310;44.626;11.176;2023-10-13T10:38:53;27.90;60.80
16402;DHT22;8310;44.626;11.176;2023-10-13T10:41:26;28.00;60.80
16402;DHT22;8310;44.626;11.176;2023-10-13T10:44:11;28.00;60.80
16402;DHT22;8310;44.626;11.176;2023-10-13T10:46:43;28.10;60.70
16402;DHT22;8310;44.626;11.176;2023-10-13T10:49:23;28.10;60.60
16402;DHT22;8310;44.626;11.176;2023-10-13T10:51:58;28.20;60.40
16402;DHT22;8310;44.626;11.176;2023-10-13T10:54:31;28.20;60.40
16402;DHT22;8310;44.626;11.176;2023-10-13T10:56:59;28.20;60.30
16402;DHT22;8310;44.626;11.176;2023-10-13T10:59:38;28.20;60.30
16402;DHT22;8310;44.626;11.176;2023-10-13T11:02:06;28.20;60.30
16402;DHT22;8310;44.626;11.176;2023-10-13T11:04:35;28.30;60.30
16402;DHT22;8310;44.626;11.176;2023-10-13T11:07:07;28.40;60.40
16402;DHT22;8310;44.626;11.176;2023-10-13T11:09:35;28.40;60.40
16402;DHT22;8310;44.626;11.176;2023-10-13T11:12:12;28.50;60.40
16402;DHT22;8310;44.626;11.176;2023-10-13T11:14:59;28.50;61.30
16402;DHT22;8310;44.626;11.176;2023-10-13T11:17:26;28.60;60.40
16402;DHT22;8310;44.626;11.176;2023-10-13T11:20:27;28.70;60.40
16402;DHT22;8310;44.626;11.176;2023-10-13T11:22:59;28.80;60.40
16402;DHT22;8310;44.626;11.176;2023-10-13T11:25:32;28.90;60.50
16402;DHT22;8310;44.626;11.176;2023-10-13T11:28:10;28.90;60.50
16402;DHT22;8310;44.626;11.176;2023-10-13T11:30:43;29.10;60.70
16402;DHT22;8310;44.626;11.176;2023-10-13T11:33:15;29.20;60.60
16402;DHT22;8310;44.626;11.176;2023-10-13T11:35:47;29.20;60.50
16402;DHT22;8310;44.626;11.176;2023-10-13T11:38:25;29.30;60.20
16402;DHT22;8310;44.626;11.176;2023-10-13T11:40:55;29.30;60.10
16402;DHT22;8310;44.626;11.176;2023-10-13T11:43:44;29.40;60.30
16402;DHT22;8310;44.626;11.176;2023-10-13T11:46:32;29.40;60.10
16402;DHT22;8310;44.626;11.176;2023-10-13T11:49:16;29.40;60.00
16402;DHT22;8310;44.626;11.176;2023-10-13T11:51:46;29.40;59.90
16402;DHT22;8310;44.626;11.176;2023-10-13T11:54:13;29.40;59.80
16402;DHT22;8310;44.626;11.176;2023-10-13T11:56:42;29.40;59.80
16402;DHT22;8310;44.626;11.176;2023-10-13T11:59:10;29.40;59.80
16402;DHT22;8310;44.626;11.176;2023-10-13T12:01:43;29.50;60.70
16402;DHT22;8310;44.626;11.176;2023-10-13T12:04:28;29.50;59.90
16402;DHT22;8310;44.626;11.176;2023-10-13T12:07:06;29.60;60.00
16402;DHT22;8310;44.626;11.176;2023-10-13T12:09:46;29.60;59.40
16402;DHT22;8310;44.626;11.176;2023-10-13T12:12:30;29.60;59.40
16402;DHT22;8310;44.626;11.176;2023-10-13T12:15:06;29.50;59.30
16402;DHT22;8310;44.626;11.176;2023-10-13T12:17:40;29.60;59.60
16402;DHT22;8310;44.626;11.176;2023-10-13T12:20:11;29.60;59.20
16402;DHT22;8310;44.626;11.176;2023-10-13T12:22:44;29.50;59.20
16402;DHT22;8310;44.626;11.176;2023-10-13T12:25:20;29.50;59.10
16402;DHT22;8310;44.626;11.176;2023-10-13T12:28:11;29.40;58.60
16402;DHT22;8310;44.626;11.176;2023-10-13T12:30:44;29.30;58.60
16402;DHT22;8310;44.626;11.176;2023-10-13T12:33:18;29.20;58.80
16402;DHT22;8310;44.626;11.176;2023-10-13T12:35:58;29.20;59.00
16402;DHT22;8310;44.626;11.176;2023-10-13T12:38:35;29.20;59.20
16402;DHT22;8310;44.626;11.176;2023-10-13T12:41:38;29.30;59.20
16402;DHT22;8310;44.626;11.176;2023-10-13T12:44:24;29.30;59.00
16402;DHT22;8310;44.626;11.176;2023-10-13T12:47:08;29.30;58.90
16402;DHT22;8310;44.626;11.176;2023-10-13T12:49:53;29.20;59.00
16402;DHT22;8310;44.626;11.176;2023-10-13T12:52:30;29.30;59.20
16402;DHT22;8310;44.626;11.176;2023-10-13T12:54:59;29.40;59.20
16402;DHT22;8310;44.626;11.176;2023-10-13T12:57:32;29.40;59.40
16402;DHT22;8310;44.626;11.176;2023-10-13T13:00:01;29.60;59.60
16402;DHT22;8310;44.626;11.176;2023-10-13T13:02:42;29.70;59.60
16402;DHT22;8310;44.626;11.176;2023-10-13T13:05:09;29.90;59.70
16402;DHT22;8310;44.626;11.176;2023-10-13T13:07:39;30.00;59.60
16402;DHT22;8310;44.626;11.176;2023-10-13T13:10:12;30.00;59.60
16402;DHT22;8310;44.626;11.176;2023-10-13T13:12:40;30.10;59.40
16402;DHT22;8310;44.626;11.176;2023-10-13T13:15:09;30.10;59.40
16402;DHT22;8310;44.626;11.176;2023-10-13T13:17:38;30.10;59.40
16402;DHT22;8310;44.626;11.176;2023-10-13T13:20:07;30.20;59.40
16402;DHT22;8310;44.626;11.176;2023-10-13T13:22:51;30.30;59.50
16402;DHT22;8310;44.626;11.176;2023-10-13T13:25:19;30.30;59.30
16402;DHT22;8310;44.626;11.176;2023-10-13T13:27:51;30.40;59.30
16402;DHT22;8310;44.626;11.176;2023-10-13T13:30:20;30.40;59.30
16402;DHT22;8310;44.626;11.176;2023-10-13T13:32:48;30.40;59.20
16402;DHT22;8310;44.626;11.176;2023-10-13T13:35:16;30.40;59.10
16402;DHT22;8310;44.626;11.176;2023-10-13T13:37:44;30.50;59.10
16402;DHT22;8310;44.626;11.176;2023-10-13T13:40:12;30.40;59.00
16402;DHT22;8310;44.626;11.176;2023-10-13T13:42:46;30.40;58.90
16402;DHT22;8310;44.626;11.176;2023-10-13T13:45:14;30.40;58.60
16402;DHT22;8310;44.626;11.176;2023-10-13T13:47:49;30.40;58.60
16402;DHT22;8310;44.626;11.176;2023-10-13T13:50:22;30.30;58.60
16402;DHT22;8310;44.626;11.176;2023-10-13T13:52:52;30.30;58.60
16402;DHT22;8310;44.626;11.176;2023-10-13T13:55:21;30.30;58.70
16402;DHT22;8310;44.626;11.176;2023-10-13T13:57:49;30.30;58.70
16402;DHT22;8310;44.626;11.176;2023-10-13T14:00:17;30.40;58.70
16402;DHT22;8310;44.626;11.176;2023-10-13T14:02:50;30.40;58.70
16402;DHT22;8310;44.626;11.176;2023-10-13T14:05:18;30.30;58.40
16402;DHT22;8310;44.626;11.176;2023-10-13T14:07:45;30.30;58.20
16402;DHT22;8310;44.626;11.176;2023-10-13T14:10:16;30.20;57.90
16402;DHT22;8310;44.626;11.176;2023-10-13T14:12:59;30.00;57.90
16402;DHT22;8310;44.626;11.176;2023-10-13T14:15:35;29.90;58.00
16402;DHT22;8310;44.626;11.176;2023-10-13T14:18:11;29.90;58.10
16402;DHT22;8310;44.626;11.176;2023-10-13T14:20:40;29.90;58.10
16402;DHT22;8310;44.626;11.176;2023-10-13T14:23:08;29.80;58.00
16402;DHT22;8310;44.626;11.176;2023-10-13T14:25:38;29.80;58.00
16402;DHT22;8310;44.626;11.176;2023-10-13T14:28:10;29.90;58.20
16402;DHT22;8310;44.626;11.176;2023-10-13T14:30:43;29.90;58.30
16402;DHT22;8310;44.626;11.176;2023-10-13T14:33:12;30.00;58.40
16402;DHT22;8310;44.626;11.176;2023-10-13T14:35:39;30.00;58.30
16402;DHT22;8310;44.626;11.176;2023-10-13T14:38:12;30.10;58.30
16402;DHT22;8310;44.626;11.176;2023-10-13T14:40:40;30.20;58.30
16402;DHT22;8310;44.626;11.176;2023-10-13T14:43:07;30.20;58.20
16402;DHT22;8310;44.626;11.176;2023-10-13T14:45:35;30.20;58.20
16402;DHT22;8310;44.626;11.176;2023-10-13T14:48:03;30.30;58.10
16402;DHT22;8310;44.626;11.176;2023-10-13T14:50:39;30.30;58.00
16402;DHT22;8310;44.626;11.176;2023-10-13T14:53:08;30.20;57.50
16402;DHT22;8310;44.626;11.176;2023-10-13T14:55:35;30.10;57.30
16402;DHT22;8310;44.626;11.176;2023-10-13T14:58:04;30.10;57.50
16402;DHT22;8310;44.626;11.176;2023-10-13T15:00:33;30.00;57.60
16402;DHT22;8310;44.626;11.176;2023-10-13T15:03:02;30.00;57.60
16402;DHT22;8310;44.626;11.176;2023-10-13T15:05:31;30.10;57.80
16402;DHT22;8310;44.626;11.176;2023-10-13T15:08:03;30.10;57.70
16402;DHT22;8310;44.626;11.176;2023-10-13T15:10:32;30.30;57.90
16402;DHT22;8310;44.626;11.176;2023-10-13T15:13:01;30.40;57.90
16402;DHT22;8310;44.626;11.176;2023-10-13T15:15:29;30.40;57.70
16402;DHT22;8310;44.626;11.176;2023-10-13T15:17:57;30.50;57.70
16402;DHT22;8310;44.626;11.176;2023-10-13T15:20:25;30.50;57.30
16402;DHT22;8310;44.626;11.176;2023-10-13T15:22:52;30.50;57.10
16402;DHT22;8310;44.626;11.176;2023-10-13T15:25:27;30.40;56.70
16402;DHT22;8310;44.626;11.176;2023-10-13T15:28:05;30.30;56.50
16402;DHT22;8310;44.626;11.176;2023-10-13T15:30:35;30.20;56.60
16402;DHT22;8310;44.626;11.176;2023-10-13T15:33:14;30.10;56.50
16402;DHT22;8310;44.626;11.176;2023-10-13T15:35:45;30.10;56.60
16402;DHT22;8310;44.626;11.176;2023-10-13T15:38:12;30.10;57.00
16402;DHT22;8310;44.626;11.176;2023-10-13T15:40:42;30.20;57.10
16402;DHT22;8310;44.626;11.176;2023-10-13T15:43:10;30.30;56.90
16402;DHT22;8310;44.626;11.176;2023-10-13T15:45:37;30.30;56.80
16402;DHT22;8310;44.626;11.176;2023-10-13T15:48:08;30.20;56.70
16402;DHT22;8310;44.626;11.176;2023-10-13T15:50:37;30.20;56.90
16402;DHT22;8310;44.626;11.176;2023-10-13T15:53:06;30.10;56.70
16402;DHT22;8310;44.626;11.176;2023-10-13T15:55:35;30.10;56.70
16402;DHT22;8310;44.626;11.176;2023-10-13T15:58:05;30.00;56.80
16402;DHT22;8310;44.626;11.176;2023-10-13T16:00:35;30.00;56.90
16402;DHT22;8310;44.626;11.176;2023-10-13T16:03:03;30.00;56.80
16402;DHT22;8310;44.626;11.176;2023-10-13T16:05:37;29.90;56.80
16402;DHT22;8310;44.626;11.176;2023-10-13T16:08:06;29.80;56.90
16402;DHT22;8310;44.626;11.176;2023-10-13T16:10:37;29.80;56.90
16402;DHT22;8310;44.626;11.176;2023-10-13T16:13:06;29.70;56.80